createdAt,value
2022-10-09T00:01:25.571Z,97.50
2022-10-09T00:03:55.022Z,97.40
2022-10-09T00:06:29.595Z,97.30
2022-10-09T00:08:57.503Z,97.20
2022-10-09T00:11:27.290Z,97.20
2022-10-09T00:13:56.205Z,97.10
2022-10-09T00:16:24.463Z,97.40
2022-10-09T00:18:52.579Z,97.70
2022-10-09T00:21:25.827Z,97.70
2022-10-09T00:23:55.721Z,98.10
2022-10-09T00:26:23.895Z,98.10
2022-10-09T00:28:51.507Z,98.20
2022-10-09T00:31:19.536Z,98.10
2022-10-09T00:33:47.526Z,98.30
2022-10-09T00:36:19.241Z,98.50
2022-10-09T00:38:47.360Z,98.70
2022-10-09T00:41:31.104Z,99.20
2022-10-09T00:44:03.687Z,99.40
2022-10-09T00:46:35.069Z,99.50
2022-10-09T00:49:29.859Z,99.30
2022-10-09T00:52:02.517Z,99.40
2022-10-09T00:54:33.805Z,99.20
2022-10-09T00:57:01.468Z,99.20
2022-10-09T00:59:30.500Z,98.80
2022-10-09T01:01:58.228Z,98.50
2022-10-09T01:04:25.887Z,98.50
2022-10-09T01:07:11.621Z,98.50
2022-10-09T01:09:46.102Z,98.40
2022-10-09T01:12:31.497Z,98.10
2022-10-09T01:15:19.778Z,98.40
2022-10-09T01:18:00.873Z,98.40
2022-10-09T01:20:28.315Z,98.60
2022-10-09T01:23:21.898Z,98.50
2022-10-09T01:26:17.309Z,98.70
2022-10-09T01:28:48.658Z,98.60
2022-10-09T01:31:18.552Z,99.10
2022-10-09T01:33:47.042Z,99.00
2022-10-09T01:36:16.906Z,99.10
2022-10-09T01:38:46.063Z,99.20
2022-10-09T01:41:13.656Z,99.30
2022-10-09T01:43:42.085Z,99.50
2022-10-09T01:46:41.884Z,99.60
2022-10-09T01:49:13.372Z,99.80
2022-10-09T01:52:09.797Z,99.90
2022-10-09T01:54:55.993Z,99.90
2022-10-09T01:57:37.320Z,99.90
2022-10-09T02:00:09.934Z,99.90
2022-10-09T02:02:38.156Z,99.60
2022-10-09T02:05:07.018Z,99.60
2022-10-09T02:07:35.299Z,99.60
2022-10-09T02:10:05.993Z,99.40
2022-10-09T02:12:39.039Z,99.10
2022-10-09T02:15:07.649Z,98.90
2022-10-09T02:17:39.952Z,98.70
2022-10-09T02:20:14.827Z,98.60
2022-10-09T02:22:42.474Z,98.80
2022-10-09T02:25:09.986Z,98.70
2022-10-09T02:27:37.675Z,98.60
2022-10-09T02:30:08.877Z,98.60
2022-10-09T02:32:36.437Z,98.90
2022-10-09T02:35:04.263Z,98.80
2022-10-09T02:37:31.626Z,98.90
2022-10-09T02:39:59.170Z,99.00
2022-10-09T02:42:26.796Z,98.60
2022-10-09T02:44:54.281Z,98.70
2022-10-09T02:47:21.764Z,99.20
2022-10-09T02:49:49.337Z,99.40
2022-10-09T02:52:16.822Z,99.70
2022-10-09T02:54:44.397Z,99.90
2022-10-09T02:57:11.911Z,99.90
2022-10-09T02:59:39.426Z,99.90
2022-10-09T03:02:07.060Z,99.90
2022-10-09T03:04:34.616Z,99.90
2022-10-09T03:07:02.137Z,99.90
2022-10-09T03:09:33.535Z,99.60
2022-10-09T03:12:01.484Z,99.80
2022-10-09T03:14:28.863Z,99.70
2022-10-09T03:16:56.392Z,99.80
2022-10-09T03:19:23.854Z,99.70
2022-10-09T03:21:51.341Z,99.50
2022-10-09T03:24:18.903Z,99.40
2022-10-09T03:26:46.454Z,99.30
2022-10-09T03:29:13.962Z,99.20
2022-10-09T03:31:56.884Z,99.40
2022-10-09T03:34:24.384Z,99.20
2022-10-09T03:36:51.982Z,99.10
2022-10-09T03:39:19.305Z,98.90
2022-10-09T03:41:46.877Z,98.80
2022-10-09T03:44:14.219Z,99.10
2022-10-09T03:46:41.666Z,99.10
2022-10-09T03:49:09.214Z,99.10
2022-10-09T03:51:36.768Z,99.10
2022-10-09T03:54:04.372Z,99.10
2022-10-09T03:56:31.992Z,99.10
2022-10-09T03:58:59.504Z,99.30
2022-10-09T04:01:26.975Z,98.90
2022-10-09T04:03:54.475Z,98.60
2022-10-09T04:06:21.908Z,98.90
2022-10-09T04:08:49.260Z,99.00
2022-10-09T04:11:16.662Z,99.00
2022-10-09T04:13:44.062Z,99.00
2022-10-09T04:16:13.132Z,99.10
2022-10-09T04:18:43.159Z,99.20
2022-10-09T04:21:10.781Z,99.10
2022-10-09T04:23:38.215Z,99.20
2022-10-09T04:26:05.957Z,99.20
2022-10-09T04:28:33.759Z,99.20
2022-10-09T04:31:01.905Z,99.10
2022-10-09T04:33:30.007Z,99.10
2022-10-09T04:35:58.133Z,99.00
2022-10-09T04:38:26.908Z,99.20
2022-10-09T04:41:08.371Z,98.90
2022-10-09T04:43:36.332Z,98.90
2022-10-09T04:46:13.277Z,98.80
2022-10-09T04:48:46.141Z,99.00
2022-10-09T04:51:14.932Z,98.90
2022-10-09T04:53:43.741Z,98.90
2022-10-09T04:56:14.176Z,98.50
2022-10-09T04:58:42.821Z,98.90
2022-10-09T05:01:16.987Z,98.70
2022-10-09T05:03:45.173Z,98.70
2022-10-09T05:06:14.607Z,98.70
2022-10-09T05:08:43.053Z,98.80
2022-10-09T05:11:13.919Z,98.50
2022-10-09T05:13:45.770Z,97.60
2022-10-09T05:16:16.409Z,97.30
2022-10-09T05:18:46.448Z,97.00
2022-10-09T05:21:14.897Z,95.60
2022-10-09T05:23:43.049Z,95.30
2022-10-09T05:26:14.430Z,94.50
2022-10-09T05:28:42.522Z,94.20
2022-10-09T05:31:12.732Z,93.50
2022-10-09T05:33:40.367Z,93.70
2022-10-09T05:36:08.367Z,93.60
2022-10-09T05:38:36.056Z,94.50
2022-10-09T05:41:06.560Z,95.00
2022-10-09T05:43:37.045Z,95.40
2022-10-09T05:46:12.267Z,94.50
2022-10-09T05:48:42.604Z,95.10
2022-10-09T05:51:31.360Z,94.70
2022-10-09T05:54:00.090Z,93.20
2022-10-09T05:56:38.524Z,93.00
2022-10-09T05:59:11.763Z,92.00
2022-10-09T06:01:41.991Z,90.70
2022-10-09T06:04:14.240Z,90.20
2022-10-09T06:06:42.081Z,90.30
2022-10-09T06:09:11.815Z,88.80
2022-10-09T06:11:41.414Z,88.90
2022-10-09T06:14:11.651Z,88.40
2022-10-09T06:16:44.941Z,88.30
2022-10-09T06:19:15.627Z,90.00
2022-10-09T06:21:44.489Z,87.10
2022-10-09T06:24:22.173Z,87.60
2022-10-09T06:26:51.931Z,87.60
2022-10-09T06:29:19.550Z,87.70
2022-10-09T06:31:47.321Z,88.00
2022-10-09T06:34:15.043Z,87.20
2022-10-09T06:36:42.682Z,86.90
2022-10-09T06:39:11.528Z,87.30
2022-10-09T06:41:39.056Z,87.30
2022-10-09T06:44:11.782Z,87.20
2022-10-09T06:46:44.520Z,88.00
2022-10-09T06:49:13.047Z,88.20
2022-10-09T06:51:43.421Z,88.30
2022-10-09T06:54:17.675Z,86.80
2022-10-09T06:56:46.086Z,86.80
2022-10-09T06:59:14.321Z,87.00
2022-10-09T07:01:41.886Z,86.70
2022-10-09T07:04:14.930Z,88.00
2022-10-09T07:06:45.759Z,87.70
2022-10-09T07:09:15.564Z,87.60
2022-10-09T07:11:46.251Z,88.30
2022-10-09T07:14:16.364Z,87.60
2022-10-09T07:16:46.964Z,88.20
2022-10-09T07:19:15.962Z,89.10
2022-10-09T07:21:45.011Z,88.50
2022-10-09T07:24:14.120Z,88.10
2022-10-09T07:26:44.574Z,88.20
2022-10-09T07:29:14.485Z,88.10
2022-10-09T07:31:42.000Z,88.30
2022-10-09T07:34:09.580Z,87.80
2022-10-09T07:36:37.395Z,87.70
2022-10-09T07:39:05.735Z,87.80
2022-10-09T07:41:33.811Z,87.80
2022-10-09T07:44:01.325Z,87.50
2022-10-09T07:46:33.361Z,87.40
2022-10-09T07:49:02.036Z,87.70
2022-10-09T07:51:30.646Z,86.10
2022-10-09T07:53:58.805Z,86.70
2022-10-09T07:56:29.480Z,87.10
2022-10-09T07:59:08.805Z,86.80
2022-10-09T08:01:36.917Z,85.30
2022-10-09T08:04:05.440Z,85.80
2022-10-09T08:06:33.564Z,85.10
2022-10-09T08:09:02.711Z,84.80
2022-10-09T08:11:31.181Z,84.50
2022-10-09T08:13:59.161Z,83.70
2022-10-09T08:16:27.894Z,83.80
2022-10-09T08:18:57.284Z,83.50
2022-10-09T08:21:24.915Z,83.70
2022-10-09T08:23:57.640Z,83.90
2022-10-09T08:26:26.807Z,83.10
2022-10-09T08:29:02.783Z,82.50
2022-10-09T08:31:32.156Z,83.00
2022-10-09T08:34:03.011Z,81.80
2022-10-09T08:36:31.407Z,81.70
2022-10-09T08:38:59.355Z,80.10
2022-10-09T08:41:44.160Z,80.40
2022-10-09T08:44:19.964Z,80.50
2022-10-09T08:46:50.206Z,79.80
2022-10-09T08:49:43.803Z,79.60
2022-10-09T08:52:38.165Z,79.00
2022-10-09T08:55:14.640Z,79.00
2022-10-09T08:57:42.686Z,78.50
2022-10-09T09:00:18.841Z,77.40
2022-10-09T09:03:23.684Z,77.30
2022-10-09T09:05:54.041Z,77.20
2022-10-09T09:08:52.881Z,77.20
2022-10-09T09:11:23.600Z,75.70
2022-10-09T09:14:08.281Z,76.60
2022-10-09T09:17:04.608Z,76.10
2022-10-09T09:19:47.048Z,76.10
2022-10-09T09:22:16.685Z,75.90
2022-10-09T09:24:53.735Z,75.70
2022-10-09T09:27:30.684Z,72.60
2022-10-09T09:30:16.521Z,73.30
2022-10-09T09:33:09.242Z,72.80
2022-10-09T09:36:06.805Z,72.90
2022-10-09T09:38:34.280Z,72.80
2022-10-09T09:41:02.245Z,71.40
2022-10-09T09:43:30.364Z,69.80
2022-10-09T09:46:00.120Z,71.00
2022-10-09T09:48:40.002Z,72.40
2022-10-09T09:51:28.110Z,67.80
2022-10-09T09:54:18.085Z,65.60
2022-10-09T09:57:11.249Z,66.50
2022-10-09T09:59:41.327Z,67.50
2022-10-09T10:02:22.022Z,65.70
2022-10-09T10:04:57.798Z,65.10
2022-10-09T10:07:40.115Z,67.10
2022-10-09T10:10:10.854Z,65.30
2022-10-09T10:13:00.940Z,67.10
2022-10-09T10:15:28.315Z,64.40
2022-10-09T10:18:00.205Z,64.40
2022-10-09T10:20:29.502Z,63.10
2022-10-09T10:22:58.521Z,62.00
2022-10-09T10:25:31.681Z,62.80
2022-10-09T10:28:15.739Z,62.20
2022-10-09T10:30:44.324Z,60.10
2022-10-09T10:33:29.486Z,59.30
2022-10-09T10:35:59.430Z,60.10
2022-10-09T10:38:56.300Z,62.40
2022-10-09T10:41:34.060Z,62.80
2022-10-09T10:44:28.616Z,62.90
2022-10-09T10:47:04.564Z,62.10
2022-10-09T10:49:34.027Z,62.70
2022-10-09T10:52:21.399Z,62.30
2022-10-09T10:55:00.665Z,56.80
2022-10-09T10:57:39.542Z,55.90
2022-10-09T11:00:10.198Z,60.20
2022-10-09T11:03:08.519Z,60.50
2022-10-09T11:05:46.881Z,58.90
2022-10-09T11:08:29.378Z,56.50
2022-10-09T11:11:22.069Z,55.40
2022-10-09T11:14:20.501Z,57.00
2022-10-09T11:17:07.136Z,58.60
2022-10-09T11:19:56.434Z,57.90
2022-10-09T11:22:52.605Z,58.30
2022-10-09T11:25:30.492Z,57.80
2022-10-09T11:28:18.836Z,58.00
2022-10-09T11:31:20.207Z,58.30
2022-10-09T11:33:54.749Z,57.40
2022-10-09T11:36:38.112Z,58.20
2022-10-09T11:39:12.217Z,57.90
2022-10-09T11:41:40.896Z,56.60
2022-10-09T11:44:26.999Z,52.80
2022-10-09T11:47:09.923Z,52.90
2022-10-09T11:49:59.271Z,53.30
2022-10-09T11:52:44.911Z,55.60
2022-10-09T11:55:21.097Z,53.30
2022-10-09T11:57:49.465Z,55.60
2022-10-09T12:00:28.921Z,55.60
2022-10-09T12:03:02.468Z,56.30
2022-10-09T12:05:43.160Z,55.70
2022-10-09T12:08:53.714Z,56.00
2022-10-09T12:11:22.867Z,54.90
2022-10-09T12:13:59.571Z,51.50
2022-10-09T12:16:30.169Z,51.90
2022-10-09T12:19:00.311Z,49.20
2022-10-09T12:21:40.367Z,49.50
2022-10-09T12:24:15.809Z,50.60
2022-10-09T12:26:44.274Z,51.40
2022-10-09T12:29:28.210Z,51.00
2022-10-09T12:32:00.076Z,51.10
2022-10-09T12:34:34.799Z,53.50
2022-10-09T12:37:16.478Z,52.80
2022-10-09T12:39:44.980Z,53.10
2022-10-09T12:42:25.563Z,54.80
2022-10-09T12:44:55.673Z,56.40
2022-10-09T12:47:30.530Z,57.80
2022-10-09T12:50:05.822Z,57.20
2022-10-09T12:52:33.430Z,56.00
2022-10-09T12:55:02.877Z,54.30
2022-10-09T12:57:31.050Z,54.00
2022-10-09T12:59:59.023Z,54.20
2022-10-09T13:02:26.804Z,55.60
2022-10-09T13:05:01.278Z,55.90
2022-10-09T13:07:30.987Z,56.40
2022-10-09T13:10:01.571Z,56.00
2022-10-09T13:12:30.440Z,56.50
2022-10-09T13:14:59.824Z,55.20
2022-10-09T13:17:38.395Z,55.90
2022-10-09T13:20:17.868Z,56.10
2022-10-09T13:22:59.621Z,57.00
2022-10-09T13:25:39.621Z,55.70
2022-10-09T13:28:07.693Z,56.00
2022-10-09T13:30:35.462Z,54.40
2022-10-09T13:33:03.125Z,54.20
2022-10-09T13:35:30.985Z,54.00
2022-10-09T13:37:58.480Z,54.10
2022-10-09T13:40:26.148Z,55.60
2022-10-09T13:42:56.997Z,53.50
2022-10-09T13:45:24.738Z,53.40
2022-10-09T13:47:52.609Z,54.40
2022-10-09T13:50:20.684Z,54.00
2022-10-09T13:52:48.338Z,53.00
2022-10-09T13:55:15.951Z,53.70
2022-10-09T13:57:43.449Z,54.30
2022-10-09T14:00:11.731Z,55.20
2022-10-09T14:02:39.351Z,55.20
2022-10-09T14:05:07.164Z,54.20
2022-10-09T14:07:34.764Z,56.50
2022-10-09T14:10:03.009Z,56.00
2022-10-09T14:12:30.578Z,56.90
2022-10-09T14:14:58.173Z,55.10
2022-10-09T14:17:25.648Z,55.50
2022-10-09T14:19:53.634Z,60.20
2022-10-09T14:22:21.095Z,58.80
2022-10-09T14:24:48.613Z,53.00
2022-10-09T14:27:16.155Z,55.10
2022-10-09T14:29:43.694Z,52.00
2022-10-09T14:32:11.291Z,53.20
2022-10-09T14:34:39.430Z,50.50
2022-10-09T14:37:18.439Z,50.60
2022-10-09T14:39:53.483Z,52.30
2022-10-09T14:42:20.996Z,52.50
2022-10-09T14:44:48.654Z,53.90
2022-10-09T14:47:16.258Z,55.50
2022-10-09T14:49:43.778Z,55.20
2022-10-09T14:52:11.864Z,55.50
2022-10-09T14:54:39.585Z,56.40
2022-10-09T14:57:07.118Z,56.90
2022-10-09T14:59:34.696Z,57.60
2022-10-09T15:02:02.996Z,58.30
2022-10-09T15:04:30.582Z,58.90
2022-10-09T15:06:58.006Z,59.50
2022-10-09T15:09:26.497Z,60.30
2022-10-09T15:11:53.973Z,60.80
2022-10-09T15:14:22.407Z,60.60
2022-10-09T15:16:50.015Z,60.90
2022-10-09T15:19:17.542Z,61.50
2022-10-09T15:21:45.553Z,62.10
2022-10-09T15:24:13.136Z,62.60
2022-10-09T15:26:42.318Z,64.20
2022-10-09T15:29:12.970Z,64.60
2022-10-09T15:31:43.042Z,65.40
2022-10-09T15:34:16.969Z,65.80
2022-10-09T15:36:46.212Z,65.90
2022-10-09T15:39:14.557Z,66.60
2022-10-09T15:41:44.017Z,67.40
2022-10-09T15:44:20.056Z,67.80
2022-10-09T15:46:49.097Z,69.20
2022-10-09T15:49:16.718Z,69.70
2022-10-09T15:51:44.336Z,70.30
2022-10-09T15:54:14.868Z,70.50
2022-10-09T15:56:43.296Z,71.00
2022-10-09T15:59:14.818Z,71.60
2022-10-09T16:01:42.556Z,72.20
2022-10-09T16:04:10.443Z,72.50
2022-10-09T16:06:38.898Z,73.30
2022-10-09T16:09:06.546Z,73.90
2022-10-09T16:11:35.132Z,74.80
2022-10-09T16:14:03.543Z,78.30
2022-10-09T16:16:31.035Z,76.60
2022-10-09T16:18:58.762Z,75.10
2022-10-09T16:21:28.577Z,74.50
2022-10-09T16:23:59.282Z,75.20
2022-10-09T16:26:28.815Z,75.30
2022-10-09T16:28:56.497Z,76.30
2022-10-09T16:31:34.014Z,76.90
2022-10-09T16:34:06.290Z,77.20
2022-10-09T16:36:34.398Z,77.20
2022-10-09T16:39:01.983Z,77.60
2022-10-09T16:41:31.303Z,78.10
2022-10-09T16:44:00.617Z,78.00
2022-10-09T16:46:31.817Z,78.00
2022-10-09T16:49:02.096Z,78.50
2022-10-09T16:51:33.098Z,78.90
2022-10-09T16:54:04.137Z,79.30
2022-10-09T16:56:35.706Z,79.20
2022-10-09T16:59:07.170Z,79.00
2022-10-09T17:01:43.137Z,78.90
2022-10-09T17:04:13.206Z,79.90
2022-10-09T17:06:43.413Z,79.80
2022-10-09T17:09:13.994Z,80.00
2022-10-09T17:11:42.738Z,80.00
2022-10-09T17:14:10.613Z,80.00
2022-10-09T17:16:40.093Z,80.20
2022-10-09T17:19:08.817Z,80.40
2022-10-09T17:21:36.418Z,80.90
2022-10-09T17:24:06.116Z,80.80
2022-10-09T17:26:34.632Z,81.40
2022-10-09T17:29:03.061Z,81.10
2022-10-09T17:31:31.198Z,81.10
2022-10-09T17:34:02.517Z,81.40
2022-10-09T17:36:34.770Z,81.10
2022-10-09T17:39:03.873Z,81.20
2022-10-09T17:41:32.533Z,81.60
2022-10-09T17:44:00.457Z,81.60
2022-10-09T17:46:29.979Z,82.00
2022-10-09T17:48:58.733Z,82.40
2022-10-09T17:51:40.769Z,82.20
2022-10-09T17:54:14.293Z,82.70
2022-10-09T17:56:42.253Z,82.60
2022-10-09T17:59:12.869Z,82.40
2022-10-09T18:01:40.893Z,82.60
2022-10-09T18:04:08.956Z,83.20
2022-10-09T18:06:36.656Z,83.20
2022-10-09T18:09:04.578Z,82.70
2022-10-09T18:11:32.261Z,82.80
2022-10-09T18:13:59.933Z,82.70
2022-10-09T18:16:36.078Z,82.40
2022-10-09T18:19:07.899Z,82.60
2022-10-09T18:21:36.136Z,83.60
2022-10-09T18:24:04.303Z,84.30
2022-10-09T18:26:32.334Z,84.50
2022-10-09T18:29:01.386Z,85.20
2022-10-09T18:31:29.536Z,85.20
2022-10-09T18:33:59.901Z,85.00
2022-10-09T18:36:34.107Z,84.40
2022-10-09T18:39:05.702Z,84.40
2022-10-09T18:41:34.539Z,84.20
2022-10-09T18:44:03.137Z,84.60
2022-10-09T18:46:36.867Z,84.70
2022-10-09T18:49:09.559Z,84.90
2022-10-09T18:51:40.527Z,85.00
2022-10-09T18:54:08.978Z,85.20
2022-10-09T18:56:37.867Z,85.30
2022-10-09T18:59:10.092Z,85.10
2022-10-09T19:01:37.696Z,85.20
2022-10-09T19:04:05.420Z,85.30
2022-10-09T19:06:33.332Z,85.60
2022-10-09T19:09:03.937Z,85.60
2022-10-09T19:11:33.337Z,85.50
2022-10-09T19:14:01.226Z,85.50
2022-10-09T19:16:30.460Z,86.20
2022-10-09T19:18:58.013Z,86.80
2022-10-09T19:21:26.253Z,86.60
2022-10-09T19:23:54.475Z,86.30
2022-10-09T19:26:23.193Z,86.20
2022-10-09T19:28:50.819Z,85.70
2022-10-09T19:31:18.616Z,85.50
2022-10-09T19:33:46.256Z,86.60
2022-10-09T19:36:14.742Z,86.60
2022-10-09T19:38:42.904Z,86.70
2022-10-09T19:41:13.697Z,87.20
2022-10-09T19:43:41.822Z,87.20
2022-10-09T19:46:22.974Z,87.50
2022-10-09T19:48:51.636Z,87.70
2022-10-09T19:51:22.579Z,87.70
2022-10-09T19:53:52.534Z,87.60
2022-10-09T19:56:23.177Z,87.30
2022-10-09T19:58:51.258Z,86.80
2022-10-09T20:01:21.437Z,86.90
2022-10-09T20:03:53.772Z,87.50
2022-10-09T20:06:21.593Z,87.60
2022-10-09T20:08:49.137Z,86.80
2022-10-09T20:11:16.657Z,85.80
2022-10-09T20:13:44.173Z,85.80
2022-10-09T20:16:13.782Z,85.80
2022-10-09T20:18:42.812Z,87.00
2022-10-09T20:21:16.053Z,88.00
2022-10-09T20:23:44.776Z,87.80
2022-10-09T20:26:15.744Z,86.50
2022-10-09T20:28:44.264Z,85.90
2022-10-09T20:31:18.456Z,85.60
2022-10-09T20:33:47.697Z,85.60
2022-10-09T20:36:29.332Z,86.70
2022-10-09T20:38:58.704Z,87.60
2022-10-09T20:41:29.773Z,87.50
2022-10-09T20:43:59.659Z,87.30
2022-10-09T20:46:29.976Z,86.90
2022-10-09T20:48:57.584Z,86.90
2022-10-09T20:51:25.854Z,87.10
2022-10-09T20:53:56.267Z,87.60
2022-10-09T20:56:25.181Z,87.20
2022-10-09T20:58:52.858Z,87.20
2022-10-09T21:01:20.760Z,87.50
2022-10-09T21:03:48.457Z,87.80
2022-10-09T21:06:20.437Z,87.70
2022-10-09T21:08:48.456Z,87.90
2022-10-09T21:11:17.674Z,87.90
2022-10-09T21:13:46.176Z,87.80
2022-10-09T21:16:16.416Z,88.00
2022-10-09T21:18:44.239Z,88.50
2022-10-09T21:21:17.861Z,88.10
2022-10-09T21:23:46.617Z,87.70
2022-10-09T21:26:18.575Z,87.10
2022-10-09T21:28:46.174Z,87.10
2022-10-09T21:31:23.210Z,87.50
2022-10-09T21:33:50.988Z,88.30
2022-10-09T21:37:16.005Z,88.00
2022-10-09T21:39:34.264Z,88.50
2022-10-09T21:42:01.921Z,88.40
2022-10-09T21:44:30.461Z,89.00
2022-10-09T21:46:57.970Z,89.00
2022-10-09T21:49:27.852Z,89.00
2022-10-09T21:51:55.898Z,89.20
2022-10-09T21:54:23.941Z,89.20
2022-10-09T21:56:51.496Z,89.00
2022-10-09T21:59:19.076Z,89.20
2022-10-09T22:01:46.609Z,89.80
2022-10-09T22:04:14.353Z,89.50
2022-10-09T22:06:43.577Z,89.40
2022-10-09T22:09:12.578Z,90.00
2022-10-09T22:11:40.112Z,90.20
2022-10-09T22:14:08.437Z,89.20
2022-10-09T22:16:35.982Z,90.90
2022-10-09T22:19:03.705Z,91.50
2022-10-09T22:21:31.435Z,91.50
2022-10-09T22:24:00.563Z,90.90
2022-10-09T22:26:28.357Z,91.40
2022-10-09T22:28:55.934Z,91.10
2022-10-09T22:31:26.527Z,91.20
2022-10-09T22:34:00.331Z,91.10
2022-10-09T22:36:33.903Z,90.50
2022-10-09T22:39:04.596Z,89.90
2022-10-09T22:41:34.761Z,89.60
2022-10-09T22:44:03.746Z,89.40
2022-10-09T22:46:38.328Z,89.50
2022-10-09T22:49:07.788Z,89.80
2022-10-09T22:51:35.492Z,89.90
2022-10-09T22:54:03.354Z,89.70
2022-10-09T22:56:39.514Z,89.70
2022-10-09T22:59:08.574Z,89.40
2022-10-09T23:01:49.138Z,89.80
2022-10-09T23:04:18.356Z,90.10
2022-10-09T23:06:46.848Z,90.20
2022-10-09T23:09:15.961Z,90.40
2022-10-09T23:11:43.992Z,90.00
2022-10-09T23:14:12.477Z,90.10
2022-10-09T23:16:40.512Z,89.90
2022-10-09T23:19:08.351Z,89.70
2022-10-09T23:21:37.921Z,89.50
2022-10-09T23:24:07.058Z,89.80
2022-10-09T23:26:35.927Z,90.10
2022-10-09T23:29:06.724Z,90.10
2022-10-09T23:31:34.651Z,90.00
2022-10-09T23:34:04.228Z,90.00
2022-10-09T23:36:32.053Z,90.00
2022-10-09T23:39:03.567Z,90.00
2022-10-09T23:41:31.468Z,90.20
2022-10-09T23:43:59.020Z,90.10
2022-10-09T23:46:29.775Z,90.20
2022-10-09T23:48:57.770Z,90.30
2022-10-09T23:51:26.320Z,89.70
2022-10-09T23:53:54.084Z,89.80
2022-10-09T23:56:30.133Z,89.80
2022-10-09T23:58:58.981Z,89.50
